Ashford, WA

6:07 PM PDT on October 24, 2014 (GMT -0700)
Gray Army Air Field | Change Station
CLOSE
Current Station
Airport
Location: Fort Lewis,
Elevation: 302 ft
Nearby Weather Stations

Elev 302 ft 47.08 °N, 122.58 °W | Updated 9 minutes ago

Rain
Rain
54 °F
Feels Like 54 °F
N
4
Wind Variable Wind from North

Today
High -- | Low -- °F
--% Chance of Precip.
Yesterday
High -- | Low -- °F
Precip. -- in
7:38 AM 6:04 PM
New Moon, 1% visible
Pressure 29.88 in
Visibility 10.0 miles
Clouds Few 4800 ft
Dew Point 48 °F
Humidity 80%
Rainfall 0.05 in
Snow Depth 0 in
UV 0 out of 12
Pollen .40 out of 12
Air Quality Not available.
Flu Activity Sporadic
METAR KGRF 250058Z AUTO 36003KT 10SM DZ FEW048 12/09 A2986 RMK AO2 RAE0035DZB0011E0019B0035 SLP116 P0000 T01220089 $

More Conditions Fewer Conditions

Pressure 29.88 in
Visibility 10.0 miles
Clouds Few 4800 ft
Dew Point 48 °F
Humidity 80%
Rainfall 0.05 in
Snow Depth 0 in
UV 0 out of 12
Pollen .40 out of 12
Air Quality Not available.
Flu Activity Sporadic
METAR KGRF 250058Z AUTO 36003KT 10SM DZ FEW048 12/09 A2986 RMK AO2 RAE0035DZB0011E0019B0035 SLP116 P0000 T01220089 $

More Conditions Fewer Conditions

10-Day Weather Forecast

Almanac

Astronomy

Oct. 24, 2014 Rise Set
Actual Time 7:38 AM PDT 6:04 PM PDT
Civil Twilight 7:07 AM PDT 6:35 PM PDT
Nautical Twilight 6:32 AM PDT 7:11 PM PDT
Astronomical Twilight 5:56 AM PDT 7:46 PM PDT
Moon 8:25 AM PDT (10/24) 6:45 PM PDT (10/24)
Length of Visible Light 11h 28m
Length of Day
10h 26m
Tomorrow will be 3m 7s shorter.
New Moon, 1% of the Moon is Illuminated
Today
New Moon
Oct 30
First Quarter
Nov 6
Full
Nov 14
Last Quarter
Nov 22
New

Today's Extremes

State Highs State Lows

Community

WunderPhotos

Upload Photos

1,764,737 photos uploaded!

WunderBlogs® & News

Nearby

Snow Depth

Station Depth Elevation
Burnt Mountain 0 in 4200 ft
Morse Lake 0 in 5400 ft
Pigtail Peak 2 in 5900 ft
Spirit Lake 0 in 3120 ft
Potato Hill 0 in 4500 ft

Earthquake Activity

City Distance Mag. Time & Date
No recent earthquake activity has been reported nearby.
Minimum magnitude displayed is 2.5.

Coastal Water Temperatures

Place Temperature
No Stations Reporting

Nearby Weather Stations